Time;durP1;ratioP1;P1;durP2;ratioP2;P2;SDS_P1;SDS_P2;PMS_P1;PMS_P2;Temp;Humidity;BMP_temperature;BMP_pressure;BME280_temperature;BME280_humidity;BME280_pressure;Samples;Min_cycle;Max_cycle;Signal;HPM_P1;HPM_P2
2022/04/18 00:01:56;;;;;;;3.05;2.63;;;7.00;86.90;;;;;;4178639;28;20378;-88
2022/04/18 00:03:59;;;;;;;4.13;3.33;;;6.90;86.90;;;;;;4161662;28;20047;-88
2022/04/18 00:06:02;;;;;;;3.22;3.13;;;7.00;86.50;;;;;;4166065;28;20128;-88
2022/04/18 00:08:05;;;;;;;3.53;3.35;;;6.90;87.10;;;;;;4157983;28;20099;-87
2022/04/18 00:10:07;;;;;;;3.65;3.60;;;6.90;86.50;;;;;;4170603;28;20057;-87
2022/04/18 00:12:09;;;;;;;3.60;3.40;;;7.00;86.30;;;;;;4166543;28;20037;-88
2022/04/18 00:14:12;;;;;;;4.65;4.25;;;7.00;86.00;;;;;;4166169;28;20156;-88
2022/04/18 00:16:15;;;;;;;4.50;4.15;;;7.00;85.70;;;;;;4164996;28;20041;-88
2022/04/18 00:18:17;;;;;;;3.85;3.55;;;7.10;85.50;;;;;;4174225;28;20039;-88
2022/04/18 00:20:19;;;;;;;3.08;2.92;;;7.00;85.20;;;;;;4162134;28;20037;-87
2022/04/18 00:22:23;;;;;;;3.90;3.70;;;7.00;85.70;;;;;;4165394;28;20044;-88
2022/04/18 00:24:25;;;;;;;3.47;3.30;;;7.00;85.10;;;;;;4163665;28;20103;-87
2022/04/18 00:26:27;;;;;;;3.42;3.33;;;7.10;84.50;;;;;;4161938;28;20045;-87
2022/04/18 00:28:30;;;;;;;4.53;4.32;;;7.10;84.20;;;;;;4152741;28;20108;-87
2022/04/18 00:30:32;;;;;;;4.68;4.47;;;7.10;84.10;;;;;;4168897;28;20060;-87
2022/04/18 00:32:35;;;;;;;5.97;3.78;;;7.10;83.90;;;;;;4173816;28;20045;-87
2022/04/18 00:34:38;;;;;;;5.70;3.58;;;7.20;83.90;;;;;;4150273;28;20030;-87
2022/04/18 00:36:41;;;;;;;4.13;3.83;;;7.20;84.60;;;;;;4161558;28;20502;-88
2022/04/18 00:38:44;;;;;;;4.50;3.47;;;7.10;86.10;;;;;;4161445;28;20128;-89
2022/04/18 00:40:46;;;;;;;3.40;3.30;;;7.00;86.90;;;;;;4163814;28;20048;-89
2022/04/18 00:42:50;;;;;;;4.00;3.75;;;7.00;86.30;;;;;;4161583;28;20533;-88
2022/04/18 00:44:54;;;;;;;3.20;3.10;;;7.00;87.20;;;;;;4158262;28;20049;-88
2022/04/18 00:46:56;;;;;;;3.65;3.40;;;6.90;86.70;;;;;;4162143;28;20401;-88
2022/04/18 00:48:58;;;;;;;5.25;4.15;;;6.80;87.80;;;;;;4161138;28;20041;-88
2022/04/18 00:51:01;;;;;;;3.08;2.80;;;6.90;86.70;;;;;;4165020;28;20135;-87
2022/04/18 00:53:04;;;;;;;4.00;3.90;;;6.90;86.30;;;;;;4162663;28;20048;-88
2022/04/18 00:55:07;;;;;;;4.35;4.03;;;6.90;87.00;;;;;;4146089;28;20057;-88
2022/04/18 00:57:10;;;;;;;4.30;4.20;;;6.90;86.70;;;;;;4161740;28;20076;-87
2022/04/18 00:59:12;;;;;;;3.80;3.60;;;6.80;86.80;;;;;;4161330;28;20065;-88
2022/04/18 01:01:16;;;;;;;2.65;2.55;;;6.70;86.70;;;;;;4163028;28;20038;-87
2022/04/18 01:03:20;;;;;;;3.30;3.17;;;6.80;86.40;;;;;;4162049;28;20065;-87
2022/04/18 01:05:22;;;;;;;3.65;3.45;;;6.80;86.70;;;;;;4160925;28;20137;-86
2022/04/18 01:07:24;;;;;;;4.28;4.18;;;6.80;85.80;;;;;;4165953;28;20408;-88
2022/04/18 01:09:26;;;;;;;4.22;3.92;;;6.80;87.40;;;;;;4172083;28;20645;-87
2022/04/18 01:11:28;;;;;;;4.22;4.13;;;6.60;88.40;;;;;;4163140;28;20087;-88
2022/04/18 01:13:38;;;;;;;3.67;3.58;;;6.50;87.80;;;;;;4160641;28;20037;-88
2022/04/18 01:15:41;;;;;;;3.83;3.38;;;6.50;88.40;;;;;;4144689;28;20512;-88
2022/04/18 01:17:44;;;;;;;3.60;3.42;;;6.60;86.20;;;;;;4165785;28;20036;-88
2022/04/18 01:19:46;;;;;;;3.70;3.60;;;6.60;86.60;;;;;;4162034;28;20068;-86
2022/04/18 01:21:48;;;;;;;3.10;3.00;;;6.70;86.20;;;;;;4163969;28;20037;-88
2022/04/18 01:23:50;;;;;;;7.57;3.75;;;6.70;86.00;;;;;;4166987;28;20136;-88
2022/04/18 01:30:33;;;;;;;3.08;2.95;;;6.70;85.40;;;;;;4163205;28;20492;-89
2022/04/18 01:32:39;;;;;;;4.13;3.95;;;6.70;86.00;;;;;;4166354;28;20041;-87
2022/04/18 01:34:41;;;;;;;3.92;3.78;;;6.50;86.60;;;;;;4161785;28;20096;-88
2022/04/18 01:36:43;;;;;;;3.88;3.88;;;6.70;86.20;;;;;;4146814;28;20129;-89
2022/04/18 01:38:45;;;;;;;4.00;3.97;;;6.70;86.60;;;;;;4168055;28;20037;-87
2022/04/18 01:40:47;;;;;;;4.38;4.18;;;6.60;85.50;;;;;;4160457;28;20064;-88
2022/04/18 01:42:50;;;;;;;4.55;3.10;;;6.70;85.00;;;;;;4162021;28;20057;-88
2022/04/18 01:44:52;;;;;;;4.20;3.90;;;6.70;85.20;;;;;;4163247;28;20053;-86
2022/04/18 01:46:54;;;;;;;3.42;3.33;;;6.70;85.80;;;;;;4161905;28;20124;-88
2022/04/18 01:48:56;;;;;;;3.50;3.40;;;6.80;84.80;;;;;;4174231;28;20040;-87
2022/04/18 01:50:59;;;;;;;2.95;2.85;;;6.70;85.20;;;;;;4176563;28;20076;-87
2022/04/18 01:53:03;;;;;;;4.18;4.05;;;6.60;85.50;;;;;;4172035;28;20052;-85
2022/04/18 01:55:07;;;;;;;3.05;2.95;;;6.60;86.30;;;;;;4154517;28;20144;-88
2022/04/18 01:57:10;;;;;;;3.85;3.75;;;6.60;85.60;;;;;;4177859;28;20061;-88
2022/04/18 01:59:12;;;;;;;3.60;3.45;;;6.60;85.80;;;;;;4160023;28;20033;-88
2022/04/18 02:01:15;;;;;;;3.90;3.80;;;6.70;84.60;;;;;;4159075;28;20433;-88
2022/04/18 02:03:17;;;;;;;4.13;3.65;;;6.80;84.00;;;;;;4159465;28;20111;-87
2022/04/18 02:05:20;;;;;;;3.10;2.90;;;6.80;84.00;;;;;;4166334;28;20037;-88
2022/04/18 02:07:22;;;;;;;3.35;3.17;;;6.80;84.60;;;;;;4163745;28;20722;-85
2022/04/18 02:09:24;;;;;;;3.47;3.40;;;6.70;85.30;;;;;;4158304;28;20081;-87
2022/04/18 02:11:26;;;;;;;3.42;3.33;;;6.70;83.90;;;;;;4161857;28;20052;-88
2022/04/18 02:13:28;;;;;;;3.53;3.33;;;6.70;84.60;;;;;;4162386;28;20501;-88
2022/04/18 02:15:31;;;;;;;2.67;2.58;;;6.70;84.70;;;;;;4161089;28;20038;-88
2022/04/18 02:17:33;;;;;;;3.35;3.25;;;6.70;82.90;;;;;;4150094;28;20046;-88
2022/04/18 02:19:35;;;;;;;2.75;2.65;;;6.70;83.70;;;;;;4161662;28;20045;-88
2022/04/18 02:21:37;;;;;;;4.15;3.78;;;6.60;84.70;;;;;;4159933;28;20133;-87
2022/04/18 02:23:40;;;;;;;3.80;3.50;;;6.60;83.90;;;;;;4160767;28;20120;-88
2022/04/18 02:25:43;;;;;;;4.10;4.03;;;6.60;84.00;;;;;;4161014;28;20075;-87
2022/04/18 02:27:45;;;;;;;3.08;2.83;;;6.60;84.10;;;;;;4161234;28;20068;-87
2022/04/18 02:29:47;;;;;;;7.78;3.30;;;6.60;83.30;;;;;;4160966;28;20096;-88
2022/04/18 02:34:10;;;;;;;3.08;2.88;;;6.60;84.50;;;;;;4162031;28;20480;-88
2022/04/18 02:36:12;;;;;;;3.15;3.15;;;6.40;85.90;;;;;;4159766;28;20091;-88
2022/04/18 02:38:15;;;;;;;3.17;3.10;;;6.30;85.80;;;;;;4159595;28;20041;-87
2022/04/18 02:40:17;;;;;;;3.25;3.15;;;6.20;85.90;;;;;;4161179;28;20977;-88
2022/04/18 02:42:19;;;;;;;3.15;2.95;;;6.30;85.80;;;;;;4163456;28;20037;-87
2022/04/18 02:44:22;;;;;;;3.40;2.53;;;6.30;85.70;;;;;;4159965;28;20044;-88
2022/04/18 02:46:24;;;;;;;3.58;2.83;;;6.40;85.00;;;;;;4167236;28;20092;-88
2022/04/18 02:48:27;;;;;;;3.60;3.38;;;6.30;85.70;;;;;;4159609;28;20051;-88
2022/04/18 02:50:29;;;;;;;5.07;2.35;;;6.20;86.10;;;;;;4165970;28;20573;-88
2022/04/18 02:52:32;;;;;;;3.08;2.88;;;6.20;86.70;;;;;;4164184;28;20077;-88
2022/04/18 02:54:34;;;;;;;3.03;2.92;;;6.20;85.60;;;;;;4162778;28;20038;-88
2022/04/18 02:56:36;;;;;;;3.17;3.17;;;6.30;85.30;;;;;;4165299;28;20503;-87
2022/04/18 02:58:40;;;;;;;3.70;3.70;;;6.40;84.90;;;;;;4163575;28;20038;-87
2022/04/18 03:00:42;;;;;;;2.45;2.45;;;6.50;83.50;;;;;;4147664;28;20050;-88
2022/04/18 03:02:44;;;;;;;3.28;3.13;;;6.50;85.00;;;;;;4146525;28;20132;-88
2022/04/18 03:04:47;;;;;;;4.15;4.05;;;6.40;84.50;;;;;;4147431;28;20037;-85
2022/04/18 03:06:49;;;;;;;3.15;3.05;;;6.40;85.60;;;;;;4163073;28;20095;-89
2022/04/18 03:08:51;;;;;;;3.08;2.97;;;6.40;84.30;;;;;;4157592;28;20054;-87
2022/04/18 03:11:06;;;;;;;4.10;3.90;;;6.40;85.20;;;;;;4162536;28;20075;-87
2022/04/18 03:13:08;;;;;;;3.47;3.38;;;6.30;84.10;;;;;;4165140;28;20107;-88
2022/04/18 03:15:10;;;;;;;4.15;3.88;;;6.40;83.80;;;;;;4162459;28;20041;-87
2022/04/18 03:17:12;;;;;;;3.72;3.53;;;6.20;86.00;;;;;;4148557;28;20038;-86
2022/04/18 03:19:14;;;;;;;3.55;3.45;;;6.20;85.30;;;;;;4149644;28;20038;-87
2022/04/18 03:21:17;;;;;;;5.25;3.00;;;6.20;84.10;;;;;;4163799;28;20132;-87
2022/04/18 03:23:19;;;;;;;3.72;3.72;;;6.20;84.20;;;;;;4163832;28;20079;-88
2022/04/18 03:25:21;;;;;;;3.40;3.40;;;6.30;83.90;;;;;;4163442;28;20131;-87
2022/04/18 03:27:24;;;;;;;3.55;3.45;;;6.40;84.00;;;;;;4164984;28;20053;-87
2022/04/18 03:29:26;;;;;;;3.28;3.08;;;6.40;83.60;;;;;;4145532;28;20564;-88
2022/04/18 03:31:28;;;;;;;2.67;2.45;;;6.50;83.50;;;;;;4164638;28;20064;-89
2022/04/18 03:33:31;;;;;;;3.85;3.58;;;6.40;84.90;;;;;;4163311;28;20033;-87
2022/04/18 03:35:33;;;;;;;3.00;2.80;;;6.30;83.10;;;;;;4164622;28;20048;-88
2022/04/18 03:40:03;;;;;;;3.42;3.28;;;6.30;82.80;;;;;;4163431;28;20041;-88
2022/04/18 03:42:08;;;;;;;3.90;3.85;;;6.40;82.50;;;;;;4158233;28;20041;-86
2022/04/18 03:44:10;;;;;;;3.97;3.70;;;6.40;82.70;;;;;;4171343;28;20467;-88
2022/04/18 03:46:12;;;;;;;2.88;2.88;;;6.30;83.60;;;;;;4169550;28;20037;-88
2022/04/18 03:48:14;;;;;;;2.53;2.53;;;6.30;83.50;;;;;;4163617;28;20072;-88
2022/04/18 03:50:16;;;;;;;2.65;2.55;;;6.20;83.90;;;;;;4166745;28;20087;-87
2022/04/18 03:52:18;;;;;;;3.85;3.65;;;6.10;84.60;;;;;;4167523;28;20041;-87
2022/04/18 03:54:21;;;;;;;3.55;2.88;;;6.00;86.80;;;;;;4162033;28;20046;-88
2022/04/18 03:56:23;;;;;;;3.50;3.30;;;6.00;86.50;;;;;;4161797;28;20654;-87
2022/04/18 03:58:25;;;;;;;3.50;3.33;;;6.00;86.60;;;;;;4147176;28;20517;-87
2022/04/18 04:00:27;;;;;;;4.32;4.22;;;6.00;87.30;;;;;;4173970;28;20064;-87
2022/04/18 04:02:29;;;;;;;3.33;3.33;;;6.00;87.90;;;;;;4173543;28;20381;-87
2022/04/18 04:04:31;;;;;;;4.15;3.85;;;6.00;87.60;;;;;;4168258;28;20207;-88
2022/04/18 04:06:33;;;;;;;3.95;3.65;;;6.00;88.00;;;;;;4156335;28;20045;-87
2022/04/18 04:08:35;;;;;;;4.50;4.25;;;6.10;87.60;;;;;;4173169;28;20042;-87
2022/04/18 04:10:37;;;;;;;4.13;4.03;;;6.00;87.80;;;;;;4161866;28;20045;-87
2022/04/18 04:12:41;;;;;;;4.28;4.18;;;6.00;86.70;;;;;;4177779;28;20076;-87
2022/04/18 04:14:43;;;;;;;3.80;3.70;;;6.00;86.70;;;;;;4163542;28;20099;-87
2022/04/18 04:16:45;;;;;;;4.15;4.00;;;6.00;87.10;;;;;;4166381;28;20065;-87
2022/04/18 04:18:49;;;;;;;3.88;3.63;;;6.10;87.20;;;;;;4162810;28;20641;-87
2022/04/18 04:20:51;;;;;;;4.70;4.60;;;6.00;87.50;;;;;;4154243;28;20037;-87
2022/04/18 04:22:53;;;;;;;3.65;3.55;;;6.00;86.80;;;;;;4167381;28;20071;-87
2022/04/18 04:24:55;;;;;;;3.75;3.55;;;5.90;87.10;;;;;;4166866;28;20072;-87
2022/04/18 04:26:58;;;;;;;3.60;3.50;;;5.90;87.80;;;;;;4146260;28;20685;-87
2022/04/18 04:29:01;;;;;;;3.70;3.67;;;6.00;87.60;;;;;;4176036;28;20052;-87
2022/04/18 04:31:03;;;;;;;3.80;3.70;;;6.00;87.50;;;;;;4160956;28;20041;-86
2022/04/18 04:33:06;;;;;;;;;;;6.00;87.60;;;;;;4159931;28;20513;-87
2022/04/18 04:35:10;;;;;;;3.60;3.42;;;6.10;86.60;;;;;;4162106;28;19932;-86
2022/04/18 04:37:12;;;;;;;4.25;3.97;;;6.10;87.40;;;;;;4171590;28;20524;-87
2022/04/18 04:39:14;;;;;;;4.50;4.38;;;6.10;87.90;;;;;;4167877;28;20538;-87
2022/04/18 04:41:17;;;;;;;4.50;4.13;;;6.10;87.50;;;;;;4159756;28;20045;-87
2022/04/18 04:43:20;;;;;;;3.38;3.38;;;6.10;87.50;;;;;;4165848;28;20282;-86
2022/04/18 04:45:22;;;;;;;3.97;3.78;;;6.20;87.00;;;;;;4175153;28;20053;-87
2022/04/18 04:47:24;;;;;;;4.32;4.18;;;6.10;87.30;;;;;;4161772;28;20179;-88
2022/04/18 04:49:26;;;;;;;3.38;3.28;;;6.10;87.50;;;;;;4164592;28;20044;-87
2022/04/18 04:51:29;;;;;;;3.95;3.83;;;6.10;87.40;;;;;;4163132;28;20052;-88
2022/04/18 04:53:31;;;;;;;3.90;3.70;;;6.20;87.90;;;;;;4156833;28;20100;-87
2022/04/18 04:55:36;;;;;;;3.45;3.45;;;6.20;87.30;;;;;;4174717;28;20064;-87
2022/04/18 04:57:38;;;;;;;3.72;3.63;;;6.30;87.50;;;;;;4162046;28;20083;-87
2022/04/18 04:59:40;;;;;;;3.75;3.55;;;6.30;88.00;;;;;;4163593;28;20037;-88
2022/04/18 05:01:42;;;;;;;3.22;2.92;;;6.20;88.30;;;;;;4161809;28;20053;-87
2022/04/18 05:03:45;;;;;;;3.75;3.65;;;6.20;89.30;;;;;;4162042;28;20072;-85
2022/04/18 05:05:47;;;;;;;3.92;3.83;;;6.20;89.30;;;;;;4160126;28;20669;-87
2022/04/18 05:07:57;;;;;;;4.35;3.45;;;6.20;88.90;;;;;;4151361;28;20042;-86
2022/04/18 05:10:00;;;;;;;4.20;4.10;;;6.20;89.20;;;;;;4160678;28;20053;-87
2022/04/18 05:12:02;;;;;;;5.70;5.35;;;6.20;90.20;;;;;;4163553;28;20068;-86
2022/04/18 05:14:04;;;;;;;11.15;9.63;;;6.20;90.20;;;;;;4161028;28;20045;-86
2022/04/18 05:16:06;;;;;;;3.58;3.47;;;6.20;90.40;;;;;;4159934;28;20472;-87
2022/04/18 05:18:13;;;;;;;4.78;4.45;;;6.20;90.40;;;;;;4153571;28;20037;-86
2022/04/18 05:20:15;;;;;;;3.42;3.20;;;6.20;90.10;;;;;;4171284;28;20076;-86
2022/04/18 05:22:17;;;;;;;3.60;3.40;;;6.20;90.40;;;;;;4145357;28;20037;-86
2022/04/18 05:24:26;;;;;;;3.55;3.45;;;6.20;90.70;;;;;;4161436;28;20524;-86
2022/04/18 05:26:28;;;;;;;3.97;3.65;;;6.20;90.90;;;;;;4159701;28;20132;-86
2022/04/18 05:28:30;;;;;;;5.10;4.20;;;6.30;90.80;;;;;;4166230;28;20504;-86
2022/04/18 05:30:36;;;;;;;3.22;3.00;;;6.30;91.00;;;;;;4160787;28;20139;-87
2022/04/18 05:32:38;;;;;;;5.07;4.60;;;6.40;90.60;;;;;;4161335;28;20488;-86
2022/04/18 05:34:41;;;;;;;3.72;3.60;;;6.40;90.90;;;;;;4168440;28;20041;-87
2022/04/18 05:36:43;;;;;;;3.95;3.55;;;6.40;91.00;;;;;;4175077;28;20464;-86
2022/04/18 05:38:46;;;;;;;3.72;3.63;;;6.50;90.80;;;;;;4176429;28;20076;-85
2022/04/18 05:40:48;;;;;;;3.35;3.13;;;6.60;90.80;;;;;;4169980;28;20050;-86
2022/04/18 05:42:51;;;;;;;4.72;3.15;;;6.60;90.70;;;;;;4162225;28;20055;-87
2022/04/18 05:44:53;;;;;;;2.90;2.70;;;6.70;90.70;;;;;;4161530;28;20042;-88
2022/04/18 05:46:55;;;;;;;3.28;3.08;;;6.70;90.90;;;;;;4160770;28;20068;-87
2022/04/18 05:48:57;;;;;;;3.85;3.58;;;6.60;91.10;;;;;;4162724;28;20116;-87
2022/04/18 05:50:59;;;;;;;3.17;3.05;;;6.70;91.00;;;;;;4173193;28;20041;-88
2022/04/18 05:53:02;;;;;;;2.60;2.50;;;6.70;90.90;;;;;;4168135;28;20038;-87
2022/04/18 05:55:04;;;;;;;3.95;3.22;;;6.70;91.10;;;;;;4166072;28;20092;-87
2022/04/18 05:57:07;;;;;;;2.95;2.95;;;6.80;91.30;;;;;;4161459;28;20037;-87
2022/04/18 05:59:09;;;;;;;3.67;3.40;;;6.90;91.30;;;;;;4145476;28;20057;-87
2022/04/18 06:01:11;;;;;;;3.13;2.95;;;6.90;90.90;;;;;;4162608;28;20040;-88
2022/04/18 06:03:14;;;;;;;4.05;3.55;;;6.90;91.00;;;;;;4163780;28;20570;-88
2022/04/18 06:05:16;;;;;;;3.28;2.50;;;7.00;90.80;;;;;;4158074;28;20061;-88
2022/04/18 06:07:18;;;;;;;2.47;2.33;;;7.10;90.70;;;;;;4149693;28;20135;-86
2022/04/18 06:09:20;;;;;;;2.42;2.42;;;7.10;90.30;;;;;;4164706;28;20077;-88
2022/04/18 06:11:22;;;;;;;3.13;2.90;;;7.20;89.70;;;;;;4149136;28;20085;-87
2022/04/18 06:13:24;;;;;;;3.50;3.17;;;7.40;90.10;;;;;;4170097;28;20485;-88
2022/04/18 06:15:33;;;;;;;3.28;3.05;;;7.40;89.30;;;;;;4156402;28;20034;-85
2022/04/18 06:17:35;;;;;;;2.47;2.38;;;7.50;89.60;;;;;;4160314;28;20041;-88
2022/04/18 06:19:38;;;;;;;3.58;3.28;;;7.60;87.50;;;;;;4166400;28;20048;-87
2022/04/18 06:21:40;;;;;;;3.42;3.22;;;7.60;88.90;;;;;;4160950;28;20069;-86
2022/04/18 06:23:42;;;;;;;3.15;2.70;;;7.60;86.80;;;;;;4172955;28;20053;-88
2022/04/18 06:25:45;;;;;;;2.97;2.10;;;7.70;86.40;;;;;;4145522;28;20049;-87
2022/04/18 06:27:47;;;;;;;2.40;2.38;;;7.80;86.30;;;;;;4161076;28;20049;-87
2022/04/18 06:29:49;;;;;;;3.30;3.20;;;7.90;85.70;;;;;;4160512;28;20183;-82
2022/04/18 06:31:53;;;;;;;2.40;2.15;;;7.90;86.10;;;;;;4168310;28;20045;-82
2022/04/18 06:34:02;;;;;;;2.33;2.33;;;7.90;85.80;;;;;;4158668;28;20111;-82
2022/04/18 06:36:04;;;;;;;2.17;2.08;;;7.90;84.80;;;;;;4158984;28;20029;-82
2022/04/18 06:38:06;;;;;;;3.35;2.63;;;8.10;84.80;;;;;;4160392;28;20037;-82
2022/04/18 06:40:08;;;;;;;3.03;2.95;;;8.10;85.40;;;;;;4161537;28;20041;-82
2022/04/18 06:42:11;;;;;;;2.83;2.72;;;8.30;85.60;;;;;;4160454;28;20076;-82
2022/04/18 06:44:14;;;;;;;2.83;2.83;;;8.20;83.80;;;;;;4168112;28;20851;-83
2022/04/18 06:46:16;;;;;;;2.70;2.63;;;8.30;84.50;;;;;;4158727;28;20081;-82
2022/04/18 06:48:18;;;;;;;3.15;3.05;;;8.30;84.40;;;;;;4151871;28;20332;-83
2022/04/18 06:50:30;;;;;;;2.30;2.30;;;8.40;84.90;;;;;;4161005;28;20839;-82
2022/04/18 06:52:40;;;;;;;2.30;2.30;;;8.50;84.20;;;;;;4160277;28;20072;-82
2022/04/18 06:54:42;;;;;;;3.13;3.03;;;8.70;83.50;;;;;;4162012;28;20140;-82
2022/04/18 06:56:59;;;;;;;2.42;2.33;;;8.80;84.50;;;;;;4160001;28;20547;-82
2022/04/18 06:59:01;;;;;;;1.77;1.77;;;9.00;83.60;;;;;;4161448;28;20436;-82
2022/04/18 07:01:04;;;;;;;2.22;2.22;;;9.00;86.20;;;;;;4161615;28;20096;-82
2022/04/18 07:03:06;;;;;;;2.40;2.30;;;9.30;83.60;;;;;;4160338;28;20044;-82
2022/04/18 07:05:08;;;;;;;2.15;2.15;;;9.30;83.40;;;;;;4169542;28;20112;-83
2022/04/18 07:07:10;;;;;;;3.00;2.00;;;9.50;83.60;;;;;;4164004;28;20590;-82
2022/04/18 07:09:12;;;;;;;2.00;1.95;;;9.50;81.70;;;;;;4163937;28;20046;-82
2022/04/18 07:11:14;;;;;;;2.10;2.05;;;9.70;81.50;;;;;;4160613;28;20139;-82
2022/04/18 07:13:16;;;;;;;1.67;1.58;;;9.70;80.80;;;;;;4170252;28;20107;-82
2022/04/18 07:15:18;;;;;;;2.42;2.33;;;9.60;80.80;;;;;;4158329;28;20049;-82
2022/04/18 07:17:21;;;;;;;2.08;1.98;;;9.40;80.40;;;;;;4160105;28;20539;-82
2022/04/18 07:19:23;;;;;;;1.92;1.83;;;9.70;81.50;;;;;;4159511;28;20061;-82
2022/04/18 07:21:26;;;;;;;1.75;1.65;;;9.80;81.00;;;;;;4143291;28;20104;-82
2022/04/18 07:23:28;;;;;;;;;;;10.00;83.00;;;;;;4160281;28;20068;-83
2022/04/18 07:25:30;;;;;;;2.05;1.92;;;10.00;77.80;;;;;;4159941;28;20019;-82
2022/04/18 07:27:32;;;;;;;2.00;1.90;;;10.30;80.00;;;;;;4153854;28;20045;-82
2022/04/18 07:29:34;;;;;;;2.30;2.08;;;10.50;79.70;;;;;;4160384;28;20125;-82
2022/04/18 07:31:36;;;;;;;1.77;1.67;;;10.50;84.20;;;;;;4159613;28;20053;-82
2022/04/18 07:33:39;;;;;;;2.28;2.08;;;10.50;79.50;;;;;;4159351;28;20033;-83
2022/04/18 07:35:42;;;;;;;2.00;1.55;;;10.40;78.10;;;;;;4158173;28;20065;-82
2022/04/18 07:40:05;;;;;;;2.13;1.40;;;10.30;78.70;;;;;;4163832;28;20041;-83
2022/04/18 07:42:08;;;;;;;1.60;1.60;;;10.20;76.50;;;;;;4161739;28;20080;-82
2022/04/18 07:44:10;;;;;;;2.55;1.88;;;10.40;82.10;;;;;;4172564;28;20036;-82
2022/04/18 07:46:15;;;;;;;1.73;1.65;;;10.60;77.90;;;;;;4164082;28;20516;-82
2022/04/18 07:48:17;;;;;;;2.90;1.92;;;10.40;78.00;;;;;;4162574;28;20053;-82
2022/04/18 07:50:19;;;;;;;1.75;1.65;;;10.40;78.00;;;;;;4169660;28;20497;-83
2022/04/18 07:52:21;;;;;;;2.33;1.45;;;10.50;79.30;;;;;;4165973;28;20050;-83
2022/04/18 07:54:23;;;;;;;1.58;1.58;;;10.50;77.20;;;;;;4161431;28;20042;-82
2022/04/18 07:56:26;;;;;;;1.30;1.30;;;10.40;77.60;;;;;;4161471;28;20136;-83
2022/04/18 07:58:28;;;;;;;1.10;1.10;;;10.30;77.00;;;;;;4162036;28;20495;-83
2022/04/18 08:00:31;;;;;;;1.60;1.58;;;10.40;78.30;;;;;;4162801;28;20152;-83
2022/04/18 08:02:34;;;;;;;2.83;2.63;;;10.20;75.90;;;;;;4164313;28;20035;-83
2022/04/18 08:04:39;;;;;;;1.50;1.50;;;10.00;77.00;;;;;;4173524;28;20041;-84
2022/04/18 08:06:41;;;;;;;2.10;1.90;;;10.10;76.80;;;;;;4167187;28;20045;-84
2022/04/18 08:08:43;;;;;;;1.55;1.45;;;10.10;75.40;;;;;;4167111;28;20421;-84
2022/04/18 08:10:45;;;;;;;;;;;10.20;76.40;;;;;;4170414;28;20088;-84
2022/04/18 08:12:49;;;;;;;1.52;1.52;;;10.40;76.70;;;;;;4159255;28;19921;-83
2022/04/18 08:14:52;;;;;;;1.60;1.50;;;10.60;76.50;;;;;;4175446;28;20046;-83
2022/04/18 08:16:54;;;;;;;1.90;1.80;;;10.70;75.60;;;;;;4163754;28;20060;-84
2022/04/18 08:18:56;;;;;;;1.50;1.50;;;10.80;75.40;;;;;;4176561;28;20045;-83
2022/04/18 08:21:00;;;;;;;1.40;1.40;;;10.70;75.60;;;;;;4163730;28;20037;-84
2022/04/18 08:23:02;;;;;;;1.60;1.60;;;10.80;76.20;;;;;;4160775;28;20037;-84
2022/04/18 08:25:05;;;;;;;1.98;1.70;;;10.90;75.00;;;;;;4160802;28;20042;-84
2022/04/18 08:27:06;;;;;;;;;;;10.90;76.00;;;;;;4171855;28;20547;-83
2022/04/18 08:29:09;;;;;;;1.70;1.70;;;11.10;74.70;;;;;;4177950;28;20544;-83
2022/04/18 08:31:11;;;;;;;1.38;1.38;;;11.10;74.70;;;;;;4161327;28;20231;-83
2022/04/18 08:33:13;;;;;;;2.25;2.10;;;10.90;75.40;;;;;;4161303;28;20440;-84
2022/04/18 08:35:18;;;;;;;1.48;1.48;;;10.90;74.70;;;;;;4162909;28;20823;-84
2022/04/18 08:37:20;;;;;;;1.67;1.30;;;10.90;74.40;;;;;;4162129;28;20637;-84
2022/04/18 08:39:23;;;;;;;1.40;1.40;;;10.80;73.90;;;;;;4161042;28;20137;-83
2022/04/18 08:41:32;;;;;;;1.80;1.70;;;10.90;74.40;;;;;;4144728;28;20101;-84
2022/04/18 08:43:35;;;;;;;3.10;1.42;;;11.00;74.20;;;;;;4166547;28;20447;-84
2022/04/18 08:45:38;;;;;;;1.35;1.35;;;11.00;73.00;;;;;;4174096;28;20115;-84
2022/04/18 08:52:43;;;;;;;1.42;1.30;;;11.70;73.20;;;;;;4169086;28;20053;-83
2022/04/18 08:54:47;;;;;;;1.98;1.30;;;11.90;73.30;;;;;;4162835;28;20033;-84
2022/04/18 08:56:50;;;;;;;1.63;1.52;;;12.10;73.50;;;;;;4164718;28;20404;-84
2022/04/18 08:58:52;;;;;;;1.10;1.10;;;12.10;72.30;;;;;;4167406;28;20124;-84
2022/04/18 09:00:56;;;;;;;1.20;1.20;;;12.20;72.50;;;;;;4161276;28;20045;-83
2022/04/18 09:03:04;;;;;;;1.17;1.15;;;12.40;72.30;;;;;;4162509;28;20045;-83
2022/04/18 09:05:14;;;;;;;1.40;1.30;;;12.40;71.00;;;;;;4161950;28;20393;-83
2022/04/18 09:07:16;;;;;;;1.17;1.05;;;12.30;70.30;;;;;;4147412;28;20046;-84
2022/04/18 09:09:28;;;;;;;2.22;1.20;;;12.30;71.60;;;;;;4161295;28;20060;-84
2022/04/18 09:11:37;;;;;;;1.30;1.30;;;12.30;72.60;;;;;;4166209;28;20029;-84
2022/04/18 09:13:43;;;;;;;2.10;1.33;;;12.40;71.00;;;;;;4161347;28;20095;-83
2022/04/18 09:15:48;;;;;;;1.30;1.20;;;12.70;71.40;;;;;;4171018;28;20041;-83
2022/04/18 09:17:51;;;;;;;4.22;2.20;;;12.60;71.70;;;;;;4157386;28;20068;-84
2022/04/18 09:20:13;;;;;;;2.92;1.52;;;12.80;71.00;;;;;;4169217;28;20095;-84
2022/04/18 09:22:18;;;;;;;3.30;1.42;;;12.90;71.00;;;;;;4162327;28;20045;-84
2022/04/18 09:24:35;;;;;;;2.28;1.23;;;13.20;71.50;;;;;;4163071;28;20037;-84
2022/04/18 09:26:38;;;;;;;1.58;1.00;;;13.20;69.30;;;;;;4170417;28;20037;-84
2022/04/18 09:28:41;;;;;;;1.27;1.27;;;13.20;68.40;;;;;;4158802;28;20065;-84
2022/04/18 09:30:43;;;;;;;1.15;1.15;;;13.20;67.30;;;;;;4165032;28;20080;-83
2022/04/18 09:33:11;;;;;;;1.02;1.02;;;13.10;66.70;;;;;;4168388;28;20424;-83
2022/04/18 09:35:13;;;;;;;1.10;1.10;;;13.20;67.50;;;;;;4171110;28;20170;-84
2022/04/18 09:37:17;;;;;;;4.43;1.23;;;13.30;67.70;;;;;;4167774;28;20043;-84
2022/04/18 09:39:23;;;;;;;1.00;1.00;;;13.20;64.80;;;;;;4169069;28;20703;-83
2022/04/18 09:41:27;;;;;;;1.00;1.00;;;13.30;67.10;;;;;;4157888;28;20068;-84
2022/04/18 09:43:46;;;;;;;1.30;1.00;;;13.30;65.20;;;;;;4166716;28;20090;-84
2022/04/18 09:45:50;;;;;;;1.00;1.00;;;13.20;65.60;;;;;;4167709;28;20038;-84
2022/04/18 09:47:58;;;;;;;1.27;1.17;;;13.20;64.80;;;;;;4150514;28;20157;-84
2022/04/18 09:50:58;;;;;;;1.10;1.00;;;13.30;65.00;;;;;;4171364;28;20044;-84
2022/04/18 09:52:38;;;;;;;2.47;1.00;;;13.80;67.60;;;;;;4172506;28;20147;-83
2022/04/18 09:55:01;;;;;;;1.52;1.10;;;14.40;67.00;;;;;;4165568;28;20576;-84
2022/04/18 09:57:06;;;;;;;1.02;1.02;;;14.40;65.30;;;;;;4163859;28;20087;-83
2022/04/18 09:59:14;;;;;;;1.35;1.08;;;14.30;63.70;;;;;;4171058;28;20084;-83
2022/04/18 10:01:16;;;;;;;1.50;1.00;;;14.10;63.30;;;;;;4161144;28;20133;-84
2022/04/18 10:03:19;;;;;;;;;;;13.80;64.50;;;;;;4173074;28;20036;-84
2022/04/18 10:05:22;;;;;;;1.75;1.00;;;14.10;64.90;;;;;;4166492;28;19982;-84
2022/04/18 10:07:24;;;;;;;1.45;1.10;;;14.20;63.20;;;;;;4172106;28;20610;-84
2022/04/18 10:09:27;;;;;;;1.10;1.10;;;14.20;64.00;;;;;;4167798;28;20052;-84
2022/04/18 10:11:29;;;;;;;1.05;0.98;;;14.60;65.30;;;;;;4176656;28;20631;-84
2022/04/18 10:13:34;;;;;;;1.00;1.00;;;14.80;66.60;;;;;;4161348;28;20045;-84
2022/04/18 10:15:39;;;;;;;1.00;1.00;;;15.00;64.60;;;;;;4169147;28;20087;-84
2022/04/18 10:17:43;;;;;;;1.00;1.00;;;14.90;61.20;;;;;;4168305;28;20576;-84
2022/04/18 10:20:21;;;;;;;1.00;1.00;;;14.90;63.30;;;;;;4162962;28;20749;-84
2022/04/18 10:23:03;;;;;;;1.27;0.90;;;14.80;61.50;;;;;;4159558;28;20037;-83
2022/04/18 10:25:21;;;;;;;1.00;1.00;;;14.60;62.30;;;;;;4167079;28;20059;-84
2022/04/18 10:27:48;;;;;;;0.93;0.93;;;14.70;62.30;;;;;;4171621;28;20049;-84
2022/04/18 10:30:00;;;;;;;1.20;1.10;;;14.70;64.80;;;;;;4156696;28;20792;-84
2022/04/18 10:32:04;;;;;;;0.90;0.90;;;15.10;63.30;;;;;;4170346;28;20048;-84
2022/04/18 10:34:07;;;;;;;1.45;1.00;;;15.20;62.40;;;;;;4168475;28;20444;-84
2022/04/18 10:36:10;;;;;;;1.55;1.00;;;15.60;65.40;;;;;;4163854;28;20100;-84
2022/04/18 10:38:12;;;;;;;1.05;0.88;;;15.80;61.00;;;;;;4170425;28;20104;-84
2022/04/18 10:40:17;;;;;;;;;;;15.90;61.40;;;;;;4165400;28;20072;-83
2022/04/18 10:42:22;;;;;;;0.90;0.90;;;15.70;62.40;;;;;;4165121;28;19928;-84
2022/04/18 10:44:33;;;;;;;1.38;1.27;;;15.40;61.50;;;;;;4161658;28;20600;-84
2022/04/18 10:46:59;;;;;;;0.90;0.90;;;15.70;62.30;;;;;;4162492;28;20532;-84
2022/04/18 10:49:05;;;;;;;1.02;1.00;;;15.80;61.80;;;;;;4161954;28;20082;-84
2022/04/18 10:51:27;;;;;;;0.90;0.90;;;16.40;63.80;;;;;;4164553;28;20045;-84
2022/04/18 10:53:37;;;;;;;0.98;0.98;;;16.30;61.10;;;;;;4161317;28;20542;-84
2022/04/18 10:55:59;;;;;;;0.80;0.80;;;16.20;63.40;;;;;;4158549;28;20129;-84
2022/04/18 10:58:16;;;;;;;1.00;0.90;;;15.90;61.90;;;;;;4160316;28;20516;-84
2022/04/18 11:00:57;;;;;;;1.10;1.10;;;16.20;61.00;;;;;;4160219;28;20096;-83
2022/04/18 11:03:02;;;;;;;0.90;0.90;;;16.40;63.70;;;;;;4160194;28;20036;-84
2022/04/18 11:05:06;;;;;;;1.00;0.90;;;16.60;60.00;;;;;;4144312;28;20049;-84
2022/04/18 11:07:10;;;;;;;0.90;0.90;;;16.30;62.90;;;;;;4163003;28;20041;-84
2022/04/18 11:09:22;;;;;;;0.90;0.90;;;16.40;60.40;;;;;;4173210;28;20041;-83
2022/04/18 11:11:32;;;;;;;1.60;0.90;;;16.50;62.90;;;;;;4172686;28;20041;-84